createdAt,value
2023-03-10T00:04:53.366Z,11.64
2023-03-10T00:09:54.846Z,11.51
2023-03-10T00:14:56.440Z,11.54
2023-03-10T00:19:57.819Z,11.38
2023-03-10T00:24:59.292Z,11.49
2023-03-10T00:30:01.134Z,11.60
2023-03-10T00:35:02.594Z,11.44
2023-03-10T00:40:07.282Z,11.27
2023-03-10T00:45:10.276Z,11.46
2023-03-10T00:50:11.875Z,11.46
2023-03-10T00:55:13.281Z,11.61
2023-03-10T01:00:17.830Z,11.57
2023-03-10T01:05:19.610Z,11.65
2023-03-10T01:10:22.180Z,11.38
2023-03-10T01:15:23.559Z,11.26
2023-03-10T01:20:25.050Z,11.48
2023-03-10T01:25:28.096Z,11.47
2023-03-10T01:30:29.446Z,11.34
2023-03-10T01:35:31.278Z,11.22
2023-03-10T01:40:32.790Z,11.30
2023-03-10T01:45:34.159Z,11.44
2023-03-10T01:50:35.836Z,11.37
2023-03-10T01:55:43.550Z,11.34
2023-03-10T02:00:44.985Z,11.18
2023-03-10T02:05:51.906Z,11.31
2023-03-10T02:10:53.767Z,11.21
2023-03-10T02:15:55.172Z,11.29
2023-03-10T02:21:20.061Z,11.31
2023-03-10T02:26:39.987Z,11.32
2023-03-10T02:31:42.086Z,11.28
2023-03-10T02:36:43.487Z,11.35
2023-03-10T02:41:45.924Z,11.35
2023-03-10T02:46:47.682Z,11.15
2023-03-10T02:51:49.187Z,11.27
2023-03-10T02:56:50.625Z,11.34
2023-03-10T03:01:52.058Z,11.22
2023-03-10T03:06:53.424Z,11.34
2023-03-10T03:11:54.832Z,11.31
2023-03-10T03:16:56.188Z,10.93
2023-03-10T03:21:57.497Z,10.73
2023-03-10T03:26:59.292Z,10.63
2023-03-10T03:32:00.657Z,10.77
2023-03-10T03:37:02.037Z,10.71
2023-03-10T03:42:03.662Z,10.76
2023-03-10T03:47:05.305Z,10.73
2023-03-10T03:52:07.499Z,10.86
2023-03-10T03:57:09.110Z,10.81
2023-03-10T04:02:10.686Z,10.68
2023-03-10T04:07:12.150Z,10.89
2023-03-10T04:12:13.474Z,10.79
2023-03-10T04:17:14.790Z,10.79
2023-03-10T04:22:16.228Z,10.71
2023-03-10T04:27:17.574Z,10.50
2023-03-10T04:32:19.323Z,10.74
2023-03-10T04:37:21.758Z,10.46
2023-03-10T04:42:24.203Z,10.63
2023-03-10T04:47:26.001Z,10.68
2023-03-10T04:52:27.529Z,10.52
2023-03-10T04:57:28.967Z,10.43
2023-03-10T05:02:32.119Z,10.52
2023-03-10T05:07:33.552Z,10.51
2023-03-10T05:12:34.935Z,10.70
2023-03-10T05:17:36.313Z,10.73
2023-03-10T05:22:38.835Z,10.65
2023-03-10T05:27:40.263Z,10.57
2023-03-10T05:32:43.112Z,10.51
2023-03-10T05:37:44.827Z,10.61
2023-03-10T05:42:47.381Z,10.63
2023-03-10T05:47:48.829Z,10.71
2023-03-10T05:52:50.459Z,10.71
2023-03-10T05:57:51.905Z,10.71
2023-03-10T06:02:53.385Z,10.68
2023-03-10T06:07:54.866Z,10.57
2023-03-10T06:12:56.365Z,10.63
2023-03-10T06:17:57.759Z,10.66
2023-03-10T06:22:59.413Z,10.68
2023-03-10T06:28:00.745Z,10.58
2023-03-10T06:33:02.702Z,10.60
2023-03-10T06:38:04.038Z,10.50
2023-03-10T06:43:05.445Z,10.61
2023-03-10T06:48:06.908Z,10.66
2023-03-10T06:53:09.719Z,10.72
2023-03-10T06:58:11.193Z,10.63
2023-03-10T07:03:12.746Z,10.57
2023-03-10T07:08:14.116Z,10.65
2023-03-10T07:13:17.135Z,10.38
2023-03-10T07:18:19.416Z,10.41
2023-03-10T07:23:20.915Z,10.49
2023-03-10T07:28:23.742Z,10.45
2023-03-10T07:33:25.252Z,10.31
2023-03-10T07:38:26.614Z,10.43
2023-03-10T07:43:27.999Z,10.58
2023-03-10T07:48:29.544Z,10.61
2023-03-10T07:53:31.498Z,10.58
2023-03-10T07:58:34.181Z,10.68
2023-03-10T08:03:36.012Z,10.72
2023-03-10T08:08:38.151Z,10.73
2023-03-10T08:13:40.303Z,10.87
2023-03-10T08:18:42.270Z,10.89
2023-03-10T08:23:43.888Z,10.76
2023-03-10T08:28:47.189Z,10.63
2023-03-10T08:33:49.656Z,10.59
2023-03-10T08:38:53.039Z,10.66
2023-03-10T08:43:56.146Z,10.75
2023-03-10T08:48:58.687Z,10.88
2023-03-10T08:54:00.409Z,10.81
2023-03-10T08:59:01.730Z,11.02
2023-03-10T09:04:05.237Z,10.90
2023-03-10T09:09:08.767Z,11.01
2023-03-10T09:14:11.833Z,11.22
2023-03-10T09:19:13.174Z,11.62
2023-03-10T09:24:14.507Z,11.75
2023-03-10T09:29:16.297Z,12.25
2023-03-10T09:34:17.673Z,12.86
2023-03-10T09:39:19.428Z,12.94
2023-03-10T09:44:39.066Z,12.07
2023-03-10T09:49:54.047Z,11.76
2023-03-10T09:55:29.991Z,11.96
2023-03-10T10:00:40.657Z,12.28
2023-03-10T10:05:44.383Z,13.21
2023-03-10T10:10:49.371Z,12.93
2023-03-10T10:16:18.299Z,12.73
2023-03-10T10:21:42.331Z,12.63
2023-03-10T10:26:44.365Z,12.26
2023-03-10T10:32:04.401Z,11.96
2023-03-10T10:37:28.275Z,11.84
2023-03-10T10:42:34.538Z,11.98
2023-03-10T10:47:47.357Z,12.23
2023-03-10T10:52:52.989Z,12.55
2023-03-10T10:58:01.762Z,13.20
2023-03-10T11:03:31.298Z,16.78
2023-03-10T11:08:39.261Z,21.60
2023-03-10T11:14:00.083Z,22.47
2023-03-10T11:19:13.258Z,20.51
2023-03-10T11:24:48.037Z,20.52
2023-03-10T11:29:55.204Z,20.85
2023-03-10T11:34:58.277Z,21.18
2023-03-10T11:40:08.611Z,17.49
2023-03-10T11:45:27.588Z,15.01
2023-03-10T11:50:28.889Z,14.28
2023-03-10T11:55:30.611Z,13.99
2023-03-10T12:00:39.575Z,13.79
2023-03-10T12:05:50.913Z,13.52
2023-03-10T12:10:53.660Z,13.60
2023-03-10T12:16:00.757Z,13.50
2023-03-10T12:21:12.045Z,13.09
2023-03-10T12:26:14.495Z,12.85
2023-03-10T12:31:37.521Z,12.69
2023-03-10T12:36:43.286Z,12.67
2023-03-10T12:41:49.503Z,12.67
2023-03-10T12:47:09.151Z,12.57
2023-03-10T12:52:28.492Z,12.32
2023-03-10T12:57:38.919Z,12.30
2023-03-10T13:02:50.803Z,12.26
2023-03-10T13:07:57.046Z,11.92
2023-03-10T13:13:05.699Z,11.94
2023-03-10T13:18:21.172Z,11.90
2023-03-10T13:23:25.761Z,11.69
2023-03-10T13:28:30.126Z,11.52
2023-03-10T13:33:37.423Z,11.23
2023-03-10T13:38:45.243Z,11.48
2023-03-10T13:43:48.531Z,11.48
2023-03-10T13:48:50.699Z,11.40
2023-03-10T13:53:55.183Z,11.42
2023-03-10T13:59:01.865Z,11.48
2023-03-10T14:04:08.616Z,11.36
2023-03-10T14:09:12.896Z,11.32
2023-03-10T14:14:33.146Z,11.12
2023-03-10T14:19:38.608Z,11.09
2023-03-10T14:24:40.631Z,10.97
2023-03-10T14:29:49.886Z,10.81
2023-03-10T14:34:51.634Z,10.76
2023-03-10T14:39:53.135Z,10.78
2023-03-10T14:44:54.549Z,10.77
2023-03-10T14:49:56.032Z,10.72
2023-03-10T14:54:57.337Z,10.62
2023-03-10T15:00:00.651Z,10.59
2023-03-10T15:05:02.107Z,10.32
2023-03-10T15:10:11.922Z,10.83
2023-03-10T15:15:26.381Z,10.82
2023-03-10T15:20:27.973Z,10.67
2023-03-10T15:25:30.309Z,10.40
2023-03-10T15:30:36.256Z,10.65
2023-03-10T15:35:38.833Z,10.60
2023-03-10T15:40:41.603Z,10.40
2023-03-10T15:45:46.770Z,10.29
2023-03-10T15:50:49.120Z,10.22
2023-03-10T15:55:52.511Z,10.01
2023-03-10T16:00:53.875Z,9.83
2023-03-10T16:05:55.240Z,9.83
2023-03-10T16:10:56.689Z,9.80
2023-03-10T16:15:58.296Z,9.63
2023-03-10T16:21:01.676Z,9.68
2023-03-10T16:26:10.645Z,9.68
2023-03-10T16:31:14.213Z,9.73
2023-03-10T16:36:18.366Z,9.63
2023-03-10T16:41:21.086Z,9.65
2023-03-10T16:46:25.524Z,9.69
2023-03-10T16:51:35.118Z,9.62
2023-03-10T16:56:39.550Z,9.44
2023-03-10T17:01:41.068Z,9.37
2023-03-10T17:06:43.108Z,9.38
2023-03-10T17:11:55.280Z,9.26
2023-03-10T17:16:57.086Z,9.14
2023-03-10T17:21:58.999Z,9.14
2023-03-10T17:27:00.417Z,9.06
2023-03-10T17:32:01.785Z,8.90
2023-03-10T17:37:03.194Z,8.93
2023-03-10T17:42:04.844Z,8.83
2023-03-10T17:47:06.333Z,8.74
2023-03-10T17:52:07.725Z,8.80
2023-03-10T17:57:09.229Z,8.77
2023-03-10T18:02:12.341Z,8.79
2023-03-10T18:07:14.023Z,8.63
2023-03-10T18:12:16.291Z,8.67
2023-03-10T18:17:17.613Z,8.53
2023-03-10T18:22:19.264Z,8.37
2023-03-10T18:27:20.598Z,8.28
2023-03-10T18:32:24.271Z,8.05
2023-03-10T18:37:26.532Z,8.00
2023-03-10T18:42:28.366Z,7.71
2023-03-10T18:47:29.800Z,7.43
2023-03-10T18:52:32.965Z,7.08
2023-03-10T18:57:34.593Z,6.49
2023-03-10T19:02:36.305Z,6.18
2023-03-10T19:07:37.890Z,5.96
2023-03-10T19:12:39.871Z,5.87
2023-03-10T19:17:41.882Z,5.74
2023-03-10T19:22:47.302Z,5.90
2023-03-10T19:27:48.926Z,5.69
2023-03-10T19:32:50.424Z,5.71
2023-03-10T19:37:51.823Z,5.46
2023-03-10T19:42:53.263Z,5.26
2023-03-10T19:48:00.898Z,5.17
2023-03-10T19:53:02.427Z,5.21
2023-03-10T19:58:03.815Z,5.12
2023-03-10T20:03:05.427Z,5.14
2023-03-10T20:08:08.226Z,5.25
2023-03-10T20:13:09.671Z,5.02
2023-03-10T20:18:11.432Z,4.82
2023-03-10T20:23:13.546Z,4.68
2023-03-10T20:28:15.517Z,4.59
2023-03-10T20:33:21.215Z,4.63
2023-03-10T20:38:22.832Z,4.59
2023-03-10T20:43:24.308Z,4.56
2023-03-10T20:48:25.724Z,4.36
2023-03-10T20:53:27.800Z,4.43
2023-03-10T20:58:29.686Z,4.27
2023-03-10T21:03:31.147Z,4.42
2023-03-10T21:08:32.531Z,4.54
2023-03-10T21:13:34.453Z,4.47
2023-03-10T21:18:36.016Z,4.38
2023-03-10T21:23:39.076Z,4.64
2023-03-10T21:28:41.254Z,4.52
2023-03-10T21:33:42.781Z,4.51
2023-03-10T21:38:47.251Z,4.58
2023-03-10T21:43:49.168Z,4.45
2023-03-10T21:48:50.604Z,4.36
2023-03-10T21:53:56.224Z,4.18
2023-03-10T21:58:58.456Z,4.18
2023-03-10T22:03:59.914Z,4.33
2023-03-10T22:09:01.424Z,4.16
2023-03-10T22:14:03.302Z,4.17
2023-03-10T22:19:04.787Z,4.08
2023-03-10T22:24:06.390Z,4.06
2023-03-10T22:29:07.740Z,4.11
2023-03-10T22:34:09.170Z,4.14
2023-03-10T22:39:12.146Z,4.19
2023-03-10T22:44:13.571Z,4.31
2023-03-10T22:49:15.034Z,4.22
2023-03-10T22:54:16.340Z,4.12
2023-03-10T22:59:18.388Z,4.30
2023-03-10T23:04:19.715Z,4.37
2023-03-10T23:09:21.081Z,4.18
2023-03-10T23:14:22.514Z,4.13
2023-03-10T23:19:23.888Z,4.05
2023-03-10T23:24:25.350Z,4.21
2023-03-10T23:29:26.999Z,4.24
2023-03-10T23:34:28.350Z,4.25
2023-03-10T23:39:29.820Z,4.25
2023-03-10T23:44:31.196Z,4.07
2023-03-10T23:49:33.209Z,3.95
2023-03-10T23:54:34.584Z,4.12
2023-03-10T23:59:35.956Z,4.21
